createdAt,value
2022-09-14T00:00:39.832Z,16.76
2022-09-14T00:01:40.318Z,16.79
2022-09-14T00:02:37.651Z,16.82
2022-09-14T00:03:34.844Z,16.80
2022-09-14T00:04:31.601Z,16.80
2022-09-14T00:05:28.983Z,16.81
2022-09-14T00:06:26.069Z,16.80
2022-09-14T00:07:22.996Z,16.80
2022-09-14T00:08:20.131Z,16.80
2022-09-14T00:09:19.015Z,16.79
2022-09-14T00:10:15.941Z,16.81
2022-09-14T00:11:14.311Z,16.79
2022-09-14T00:12:11.371Z,16.78
2022-09-14T00:13:08.901Z,16.78
2022-09-14T00:14:06.396Z,16.77
2022-09-14T00:15:03.511Z,16.75
2022-09-14T00:16:07.089Z,16.77
2022-09-14T00:17:04.572Z,16.81
2022-09-14T00:18:01.653Z,16.81
2022-09-14T00:19:06.624Z,16.82
2022-09-14T00:20:03.972Z,16.81
2022-09-14T00:21:05.961Z,16.81
2022-09-14T00:22:03.790Z,16.80
2022-09-14T00:23:00.683Z,16.76
2022-09-14T00:23:57.536Z,16.76
2022-09-14T00:24:54.549Z,16.73
2022-09-14T00:25:51.465Z,16.78
2022-09-14T00:26:48.656Z,16.75
2022-09-14T00:27:45.560Z,16.74
2022-09-14T00:28:50.145Z,16.68
2022-09-14T00:29:48.703Z,16.66
2022-09-14T00:30:45.767Z,16.68
2022-09-14T00:31:42.845Z,16.62
2022-09-14T00:32:39.829Z,16.60
2022-09-14T00:33:37.102Z,16.58
2022-09-14T00:34:34.947Z,16.61
2022-09-14T00:35:31.861Z,16.65
2022-09-14T00:36:29.397Z,16.66
2022-09-14T00:37:26.508Z,16.68
2022-09-14T00:38:25.794Z,16.66
2022-09-14T00:39:28.231Z,16.61
2022-09-14T00:40:25.446Z,16.59
2022-09-14T00:41:24.836Z,16.60
2022-09-14T00:42:21.687Z,16.59
2022-09-14T00:43:18.626Z,16.57
2022-09-14T00:44:15.567Z,16.50
2022-09-14T00:45:16.046Z,16.52
2022-09-14T00:46:13.120Z,16.50
2022-09-14T00:47:10.295Z,16.49
2022-09-14T00:48:07.472Z,16.47
2022-09-14T00:49:07.079Z,16.48
2022-09-14T00:50:04.417Z,16.51
2022-09-14T00:51:01.388Z,16.55
2022-09-14T00:52:10.354Z,16.57
2022-09-14T00:53:07.521Z,16.56
2022-09-14T00:54:04.707Z,16.58
2022-09-14T00:55:12.987Z,16.53
2022-09-14T00:56:09.941Z,16.57
2022-09-14T00:57:06.956Z,16.52
2022-09-14T00:58:03.926Z,16.50
2022-09-14T00:59:04.141Z,16.49
2022-09-14T01:00:01.103Z,16.47
2022-09-14T01:00:58.961Z,16.44
2022-09-14T01:01:56.169Z,16.42
2022-09-14T01:02:53.160Z,16.43
2022-09-14T01:03:50.130Z,16.45
2022-09-14T01:04:46.969Z,16.43
2022-09-14T01:05:47.612Z,16.45
2022-09-14T01:06:53.267Z,16.48
2022-09-14T01:07:56.565Z,16.49
2022-09-14T01:09:25.922Z,16.51
2022-09-14T01:13:00.126Z,16.51
2022-09-14T01:14:39.278Z,16.53
2022-09-14T01:15:55.252Z,16.57
2022-09-14T01:16:52.233Z,16.61
2022-09-14T01:18:18.859Z,16.61
2022-09-14T01:19:54.682Z,16.61
2022-09-14T01:21:13.182Z,16.62
2022-09-14T01:22:18.361Z,16.66
2022-09-14T01:23:41.922Z,16.68
2022-09-14T01:24:48.426Z,16.65
2022-09-14T01:26:22.574Z,16.62
2022-09-14T01:27:44.219Z,16.60
2022-09-14T01:28:42.146Z,16.62
2022-09-14T01:29:42.952Z,16.63
2022-09-14T01:34:09.476Z,16.61
2022-09-14T01:35:21.465Z,16.66
2022-09-14T01:36:18.374Z,16.69
2022-09-14T01:37:27.544Z,16.70
2022-09-14T01:38:35.281Z,16.72
2022-09-14T01:39:32.225Z,16.72
2022-09-14T01:40:31.880Z,16.75
2022-09-14T01:41:31.394Z,16.75
2022-09-14T01:42:28.503Z,16.75
2022-09-14T01:43:54.228Z,16.79
2022-09-14T01:44:54.654Z,16.78
2022-09-14T01:45:53.521Z,16.79
2022-09-14T01:47:00.044Z,16.77
2022-09-14T01:48:04.784Z,16.76
2022-09-14T01:49:08.298Z,16.75
2022-09-14T01:50:13.096Z,16.73
2022-09-14T01:51:13.053Z,16.72
2022-09-14T01:52:16.113Z,16.74
2022-09-14T01:53:20.148Z,16.73
2022-09-14T01:54:42.125Z,16.74
2022-09-14T01:55:59.781Z,16.72
2022-09-14T01:57:03.135Z,16.77
2022-09-14T01:58:03.247Z,16.76
2022-09-14T01:59:13.818Z,16.77
2022-09-14T02:00:16.454Z,16.73
2022-09-14T02:01:31.602Z,16.75
2022-09-14T02:02:33.793Z,16.66
2022-09-14T02:03:34.366Z,16.67
2022-09-14T02:04:46.514Z,16.61
2022-09-14T02:06:00.229Z,16.59
2022-09-14T02:06:57.183Z,16.58
2022-09-14T02:07:54.067Z,16.60
2022-09-14T02:08:51.413Z,16.61
2022-09-14T02:09:48.780Z,16.60
2022-09-14T02:10:47.977Z,16.66
2022-09-14T02:11:44.982Z,16.61
2022-09-14T02:12:41.911Z,16.70
2022-09-14T02:13:38.759Z,16.68
2022-09-14T02:14:35.737Z,16.67
2022-09-14T02:15:32.872Z,16.64
2022-09-14T02:16:29.703Z,16.60
2022-09-14T02:17:26.677Z,16.55
2022-09-14T02:18:23.716Z,16.49
2022-09-14T02:19:23.796Z,16.48
2022-09-14T02:20:29.074Z,16.54
2022-09-14T02:21:29.977Z,16.57
2022-09-14T02:22:28.054Z,16.57
2022-09-14T02:23:25.068Z,16.58
2022-09-14T02:24:22.171Z,16.57
2022-09-14T02:25:19.868Z,16.58
2022-09-14T02:26:17.032Z,16.60
2022-09-14T02:27:13.962Z,16.61
2022-09-14T02:28:10.879Z,16.65
2022-09-14T02:29:07.851Z,16.67
2022-09-14T02:30:05.453Z,16.69
2022-09-14T02:31:59.359Z,16.62
2022-09-14T02:33:03.805Z,16.67
2022-09-14T02:34:22.002Z,16.72
2022-09-14T02:35:48.109Z,16.75
2022-09-14T02:36:49.153Z,16.73
2022-09-14T02:37:57.576Z,16.76
2022-09-14T02:39:17.699Z,16.76
2022-09-14T02:40:36.577Z,16.79
2022-09-14T02:41:49.489Z,16.81
2022-09-14T02:43:05.535Z,16.76
2022-09-14T02:44:30.164Z,16.73
2022-09-14T02:45:38.981Z,16.76
2022-09-14T02:46:53.504Z,16.77
2022-09-14T02:48:18.353Z,16.76
2022-09-14T02:49:53.116Z,16.68
2022-09-14T02:50:56.524Z,16.68
2022-09-14T02:52:17.580Z,16.70
2022-09-14T02:53:19.751Z,16.68
2022-09-14T02:54:19.636Z,16.69
2022-09-14T02:55:22.096Z,16.66
2022-09-14T02:56:18.837Z,16.69
2022-09-14T02:57:15.747Z,16.71
2022-09-14T02:58:13.277Z,16.72
2022-09-14T02:59:10.077Z,16.72
2022-09-14T03:00:07.488Z,16.71
2022-09-14T03:01:04.934Z,16.75
2022-09-14T03:02:02.025Z,16.69
2022-09-14T03:02:59.143Z,16.69
2022-09-14T03:03:56.149Z,16.71
2022-09-14T03:04:53.650Z,16.71
2022-09-14T03:05:50.529Z,16.70
2022-09-14T03:06:47.356Z,16.72
2022-09-14T03:07:44.195Z,16.76
2022-09-14T03:08:41.050Z,16.76
2022-09-14T03:09:37.889Z,16.77
2022-09-14T03:10:34.717Z,16.77
2022-09-14T03:11:31.485Z,16.77
2022-09-14T03:12:28.181Z,16.74
2022-09-14T03:13:25.119Z,16.71
2022-09-14T03:14:22.022Z,16.73
2022-09-14T03:15:19.085Z,16.75
2022-09-14T03:16:17.156Z,16.77
2022-09-14T03:17:14.079Z,16.76
2022-09-14T03:18:14.282Z,16.75
2022-09-14T03:19:12.440Z,16.72
2022-09-14T03:20:09.659Z,16.75
2022-09-14T03:21:07.931Z,16.77
2022-09-14T03:22:04.732Z,16.80
2022-09-14T03:23:01.806Z,16.81
2022-09-14T03:23:58.818Z,16.86
2022-09-14T03:24:55.758Z,16.89
2022-09-14T03:25:52.694Z,16.88
2022-09-14T03:26:52.233Z,16.86
2022-09-14T03:27:52.802Z,16.85
2022-09-14T03:28:53.609Z,16.84
2022-09-14T03:29:50.341Z,16.84
2022-09-14T03:30:47.983Z,16.84
2022-09-14T03:31:45.307Z,16.81
2022-09-14T03:32:42.193Z,16.81
2022-09-14T03:33:39.572Z,16.84
2022-09-14T03:34:36.522Z,16.84
2022-09-14T03:35:33.323Z,16.82
2022-09-14T03:36:31.258Z,16.86
2022-09-14T03:37:28.254Z,16.85
2022-09-14T03:38:27.976Z,16.82
2022-09-14T03:39:24.907Z,16.81
2022-09-14T03:40:22.301Z,16.84
2022-09-14T03:41:19.642Z,16.86
2022-09-14T03:42:16.763Z,16.84
2022-09-14T03:43:13.635Z,16.81
2022-09-14T03:44:10.626Z,16.75
2022-09-14T03:45:07.702Z,16.75
2022-09-14T03:46:08.055Z,16.75
2022-09-14T03:47:05.031Z,16.77
2022-09-14T03:48:01.996Z,16.79
2022-09-14T03:48:59.036Z,16.76
2022-09-14T03:49:55.855Z,16.78
2022-09-14T03:50:52.897Z,16.73
2022-09-14T03:51:49.822Z,16.65
2022-09-14T03:52:46.640Z,16.65
2022-09-14T03:53:45.061Z,16.59
2022-09-14T03:54:42.027Z,16.58
2022-09-14T03:55:40.788Z,16.62
2022-09-14T03:56:37.984Z,16.59
2022-09-14T03:57:34.813Z,16.53
2022-09-14T03:58:32.062Z,16.49
2022-09-14T03:59:28.775Z,16.47
2022-09-14T04:00:25.641Z,16.47
2022-09-14T04:01:22.828Z,16.44
2022-09-14T04:02:20.000Z,16.39
2022-09-14T04:03:17.121Z,16.38
2022-09-14T04:04:14.050Z,16.39
2022-09-14T04:05:11.618Z,16.39
2022-09-14T04:06:08.562Z,16.33
2022-09-14T04:07:05.421Z,16.29
2022-09-14T04:08:02.273Z,16.31
2022-09-14T04:08:59.371Z,16.31
2022-09-14T04:09:56.327Z,16.29
2022-09-14T04:10:53.668Z,16.28
2022-09-14T04:11:50.572Z,16.24
2022-09-14T04:12:47.344Z,16.22
2022-09-14T04:13:44.446Z,16.23
2022-09-14T04:14:41.274Z,16.17
2022-09-14T04:15:38.202Z,16.15
2022-09-14T04:16:35.141Z,16.11
2022-09-14T04:17:31.927Z,16.06
2022-09-14T04:18:28.969Z,16.02
2022-09-14T04:19:25.794Z,16.03
2022-09-14T04:20:23.587Z,15.99
2022-09-14T04:21:22.450Z,15.94
2022-09-14T04:22:19.353Z,15.95
2022-09-14T04:23:16.181Z,15.96
2022-09-14T04:24:15.599Z,15.98
2022-09-14T04:25:12.875Z,15.96
2022-09-14T04:26:13.410Z,15.94
2022-09-14T04:27:10.225Z,15.90
2022-09-14T04:28:22.387Z,15.86
2022-09-14T04:29:19.242Z,15.86
2022-09-14T04:30:16.224Z,15.91
2022-09-14T04:31:13.208Z,15.86
2022-09-14T04:32:10.007Z,15.83
2022-09-14T04:33:06.750Z,15.78
2022-09-14T04:34:03.514Z,15.78
2022-09-14T04:35:00.825Z,15.76
2022-09-14T04:36:03.982Z,15.73
2022-09-14T04:37:00.729Z,15.69
2022-09-14T04:37:57.401Z,15.66
2022-09-14T04:38:54.518Z,15.65
2022-09-14T04:39:51.323Z,15.63
2022-09-14T04:40:48.345Z,15.65
2022-09-14T04:41:45.111Z,15.69
2022-09-14T04:42:41.921Z,15.63
2022-09-14T04:43:38.813Z,15.65
2022-09-14T04:44:35.577Z,15.63
2022-09-14T04:45:32.525Z,15.60
2022-09-14T04:46:32.816Z,15.58
2022-09-14T04:47:30.057Z,15.60
2022-09-14T04:48:27.276Z,15.65
2022-09-14T04:49:24.006Z,15.67
2022-09-14T04:50:20.652Z,15.72
2022-09-14T04:51:19.153Z,15.73
2022-09-14T04:52:15.939Z,15.68
2022-09-14T04:53:12.684Z,15.63
2022-09-14T04:54:09.735Z,15.59
2022-09-14T04:55:07.277Z,15.59
2022-09-14T04:56:05.486Z,15.58
2022-09-14T04:57:02.254Z,15.56
2022-09-14T04:57:58.988Z,15.58
2022-09-14T04:58:58.540Z,15.58
2022-09-14T04:59:55.329Z,15.52
2022-09-14T05:00:52.247Z,15.52
2022-09-14T05:01:49.114Z,15.51
2022-09-14T05:02:46.204Z,15.49
2022-09-14T05:03:43.197Z,15.46
2022-09-14T05:04:39.974Z,15.50
2022-09-14T05:05:40.041Z,15.49
2022-09-14T05:06:40.861Z,15.50
2022-09-14T05:07:37.561Z,15.49
2022-09-14T05:08:36.315Z,15.47
2022-09-14T05:09:33.144Z,15.44
2022-09-14T05:10:29.990Z,15.47
2022-09-14T05:11:29.282Z,15.48
2022-09-14T05:12:26.100Z,15.51
2022-09-14T05:13:23.569Z,15.48
2022-09-14T05:14:20.471Z,15.40
2022-09-14T05:15:17.215Z,15.32
2022-09-14T05:16:17.396Z,15.30
2022-09-14T05:17:14.483Z,15.25
2022-09-14T05:18:11.416Z,15.19
2022-09-14T05:19:09.414Z,15.24
2022-09-14T05:20:06.820Z,15.24
2022-09-14T05:21:08.211Z,15.24
2022-09-14T05:22:05.496Z,15.31
2022-09-14T05:23:02.233Z,15.28
2022-09-14T05:24:00.449Z,15.32
2022-09-14T05:24:57.223Z,15.30
2022-09-14T05:25:54.275Z,15.30
2022-09-14T05:26:52.337Z,15.27
2022-09-14T05:27:49.330Z,15.19
2022-09-14T05:28:49.880Z,15.22
2022-09-14T05:29:47.494Z,15.21
2022-09-14T05:30:49.001Z,15.15
2022-09-14T05:31:45.977Z,15.19
2022-09-14T05:32:42.742Z,15.20
2022-09-14T05:33:39.641Z,15.20
2022-09-14T05:34:36.837Z,15.23
2022-09-14T05:35:34.487Z,15.21
2022-09-14T05:36:31.282Z,15.22
2022-09-14T05:37:28.050Z,15.20
2022-09-14T05:38:24.722Z,15.19
2022-09-14T05:39:23.449Z,15.17
2022-09-14T05:40:20.334Z,15.14
2022-09-14T05:41:17.401Z,15.11
2022-09-14T05:42:14.240Z,15.10
2022-09-14T05:43:11.230Z,15.10
2022-09-14T05:44:08.099Z,15.08
2022-09-14T05:45:05.137Z,15.08
2022-09-14T05:46:05.144Z,15.10
2022-09-14T05:47:01.987Z,15.14
2022-09-14T05:48:02.195Z,15.13
2022-09-14T05:48:58.955Z,15.12
2022-09-14T05:49:55.775Z,15.09
2022-09-14T05:50:59.131Z,15.08
2022-09-14T05:51:55.943Z,15.08
2022-09-14T05:52:52.839Z,15.10
2022-09-14T05:53:50.395Z,15.14
2022-09-14T05:54:47.265Z,15.17
2022-09-14T05:55:44.112Z,15.17
2022-09-14T05:56:40.873Z,15.09
2022-09-14T05:57:37.808Z,15.08
2022-09-14T05:58:35.049Z,15.06
2022-09-14T05:59:31.828Z,15.08
2022-09-14T06:00:29.528Z,15.10
2022-09-14T06:01:27.957Z,15.10
2022-09-14T06:02:25.115Z,15.11
2022-09-14T06:03:22.081Z,15.15
2022-09-14T06:04:19.066Z,15.11
2022-09-14T06:05:16.260Z,15.13
2022-09-14T06:06:14.642Z,15.09
2022-09-14T06:07:19.201Z,15.04
2022-09-14T06:08:17.458Z,14.99
2022-09-14T06:09:15.210Z,15.01
2022-09-14T06:10:12.431Z,15.08
2022-09-14T06:11:11.036Z,15.07
2022-09-14T06:12:08.161Z,15.13
2022-09-14T06:13:04.938Z,15.13
2022-09-14T06:14:02.123Z,15.12
2022-09-14T06:14:59.198Z,15.16
2022-09-14T06:15:56.750Z,15.16
2022-09-14T06:16:53.682Z,15.15
2022-09-14T06:17:50.763Z,15.15
2022-09-14T06:18:48.082Z,15.17
2022-09-14T06:19:45.002Z,15.17
2022-09-14T06:20:50.167Z,15.14
2022-09-14T06:21:47.297Z,15.13
2022-09-14T06:22:44.627Z,15.15
2022-09-14T06:23:44.177Z,15.19
2022-09-14T06:24:41.143Z,15.17
2022-09-14T06:25:38.380Z,15.13
2022-09-14T06:26:35.303Z,15.15
2022-09-14T06:27:32.275Z,15.17
2022-09-14T06:28:29.188Z,15.17
2022-09-14T06:29:26.038Z,15.19
2022-09-14T06:30:22.950Z,15.22
2022-09-14T06:31:22.734Z,15.26
2022-09-14T06:32:21.106Z,15.24
2022-09-14T06:33:18.500Z,15.24
2022-09-14T06:35:12.525Z,15.25
2022-09-14T06:37:06.237Z,15.24
2022-09-14T06:38:33.071Z,15.26
2022-09-14T06:39:38.805Z,15.25
2022-09-14T06:40:42.826Z,15.27
2022-09-14T06:41:40.457Z,15.22
2022-09-14T06:42:39.774Z,15.19
2022-09-14T06:43:57.934Z,15.22
2022-09-14T06:45:12.773Z,15.16
2022-09-14T06:57:22.732Z,15.01
2022-09-14T07:00:13.011Z,15.02
2022-09-14T07:01:15.402Z,15.10
2022-09-14T07:02:13.690Z,15.10
2022-09-14T07:03:11.144Z,15.15
2022-09-14T07:04:09.656Z,15.18
2022-09-14T07:05:06.587Z,15.22
2022-09-14T07:06:07.927Z,15.18
2022-09-14T07:07:04.852Z,15.13
2022-09-14T07:08:02.459Z,15.15
2022-09-14T07:08:59.566Z,15.16
2022-09-14T07:09:56.437Z,15.17
2022-09-14T07:10:58.145Z,15.18
2022-09-14T07:11:55.284Z,15.22
2022-09-14T07:12:52.116Z,15.19
2022-09-14T07:13:50.057Z,15.16
2022-09-14T07:14:46.829Z,15.19
2022-09-14T07:15:50.264Z,15.21
2022-09-14T07:16:48.240Z,15.18
2022-09-14T07:17:45.730Z,15.20
2022-09-14T07:18:45.884Z,15.28
2022-09-14T07:19:43.478Z,15.33
2022-09-14T07:20:45.608Z,15.38
2022-09-14T07:21:48.468Z,15.40
2022-09-14T07:24:11.986Z,15.35
2022-09-14T07:25:09.916Z,15.31
2022-09-14T07:26:11.737Z,15.32
2022-09-14T07:27:08.626Z,15.36
2022-09-14T07:28:14.513Z,15.39
2022-09-14T07:29:13.661Z,15.47
2022-09-14T07:30:10.815Z,15.54
2022-09-14T07:31:17.805Z,15.61
2022-09-14T07:32:14.860Z,15.68
2022-09-14T07:33:11.779Z,15.76
2022-09-14T07:34:08.658Z,15.80
2022-09-14T07:35:05.605Z,15.73
2022-09-14T07:36:08.803Z,15.62
2022-09-14T07:37:10.517Z,15.57
2022-09-14T07:38:07.519Z,15.54
2022-09-14T07:39:05.645Z,15.57
2022-09-14T07:40:02.869Z,15.61
2022-09-14T07:41:07.638Z,15.58
2022-09-14T07:42:26.529Z,15.61
2022-09-14T07:43:23.230Z,15.61
2022-09-14T07:44:20.149Z,15.57
2022-09-14T07:45:30.154Z,15.54
2022-09-14T07:46:28.325Z,15.52
2022-09-14T07:47:25.111Z,15.52
2022-09-14T07:48:22.686Z,15.55
2022-09-14T07:49:19.586Z,15.55
2022-09-14T07:50:16.434Z,15.55
2022-09-14T07:51:13.204Z,15.50
2022-09-14T07:52:11.350Z,15.46
2022-09-14T07:53:08.267Z,15.43
2022-09-14T07:54:06.103Z,15.44
2022-09-14T07:55:03.401Z,15.47
2022-09-14T07:56:02.924Z,15.50
2022-09-14T07:56:59.853Z,15.57
2022-09-14T07:57:57.044Z,15.54
2022-09-14T07:58:55.533Z,15.51
2022-09-14T07:59:55.249Z,15.53
2022-09-14T08:00:52.221Z,15.54
2022-09-14T08:01:50.228Z,15.56
2022-09-14T08:02:52.821Z,15.55
2022-09-14T08:03:49.904Z,15.65
2022-09-14T08:04:46.833Z,15.73
2022-09-14T08:05:43.824Z,15.83
2022-09-14T08:06:40.860Z,15.83
2022-09-14T08:07:37.854Z,15.83
2022-09-14T08:08:36.412Z,15.87
2022-09-14T08:09:33.568Z,15.76
2022-09-14T08:10:30.560Z,15.74
2022-09-14T08:11:29.274Z,15.69
2022-09-14T08:12:26.177Z,15.62
2022-09-14T08:13:23.255Z,15.64
2022-09-14T08:14:20.697Z,15.60
2022-09-14T08:15:17.844Z,15.60
2022-09-14T08:16:14.930Z,15.62
2022-09-14T08:17:12.035Z,15.63
2022-09-14T08:18:08.939Z,15.70
2022-09-14T08:19:07.300Z,15.79
2022-09-14T08:20:05.239Z,15.87
2022-09-14T08:21:13.335Z,15.94
2022-09-14T08:22:10.250Z,15.93
2022-09-14T08:23:07.211Z,15.94
2022-09-14T08:24:04.452Z,16.01
2022-09-14T08:25:01.504Z,15.99
2022-09-14T08:26:12.077Z,16.01
2022-09-14T08:27:12.305Z,15.95
2022-09-14T08:28:09.591Z,15.96
2022-09-14T08:29:07.476Z,15.95
2022-09-14T08:30:05.009Z,15.95
2022-09-14T08:31:03.652Z,15.96
2022-09-14T08:32:00.695Z,15.90
2022-09-14T08:33:01.661Z,15.87
2022-09-14T08:34:00.370Z,15.87
2022-09-14T08:34:57.467Z,15.82
2022-09-14T08:35:57.763Z,15.80
2022-09-14T08:36:55.142Z,15.79
2022-09-14T08:37:52.109Z,15.76
2022-09-14T08:38:48.940Z,15.79
2022-09-14T08:39:51.423Z,15.80
2022-09-14T08:40:48.692Z,15.81
2022-09-14T08:41:48.443Z,15.91
2022-09-14T08:42:45.371Z,15.97
2022-09-14T08:43:42.196Z,16.01
2022-09-14T08:44:43.861Z,15.92
2022-09-14T08:45:42.683Z,15.87
2022-09-14T08:46:44.819Z,15.90
2022-09-14T08:47:42.088Z,15.91
2022-09-14T08:48:41.891Z,15.86
2022-09-14T08:49:57.191Z,15.85
2022-09-14T08:50:54.234Z,15.85
2022-09-14T08:51:51.918Z,15.87
2022-09-14T08:52:50.112Z,15.89
2022-09-14T08:53:46.968Z,15.88
2022-09-14T08:54:44.467Z,15.87
2022-09-14T08:55:44.827Z,15.86
2022-09-14T08:56:45.764Z,15.87
2022-09-14T08:57:49.002Z,15.93
2022-09-14T08:58:48.765Z,15.96
2022-09-14T08:59:53.463Z,15.97
2022-09-14T09:01:18.038Z,15.94
2022-09-14T09:02:41.333Z,16.08
2022-09-14T09:03:57.813Z,16.15
2022-09-14T09:05:22.439Z,16.14
2022-09-14T09:06:28.332Z,16.15
2022-09-14T09:07:31.275Z,16.13
2022-09-14T09:08:39.794Z,16.07
2022-09-14T09:09:45.351Z,16.08
2022-09-14T09:10:42.292Z,16.08
2022-09-14T09:11:44.161Z,16.15
2022-09-14T09:12:53.854Z,16.13
2022-09-14T09:13:51.097Z,16.18
2022-09-14T09:14:59.773Z,16.06
2022-09-14T09:16:00.172Z,15.91
2022-09-14T09:16:58.796Z,15.81
2022-09-14T09:18:16.262Z,15.81
2022-09-14T09:19:20.124Z,15.83
2022-09-14T09:20:57.996Z,15.75
2022-09-14T09:21:55.912Z,15.77
2022-09-14T09:23:08.234Z,15.73
2022-09-14T09:24:26.904Z,15.71
2022-09-14T09:25:29.083Z,15.73
2022-09-14T09:26:26.045Z,15.71
2022-09-14T09:27:26.289Z,15.70
2022-09-14T09:28:24.132Z,15.63
2022-09-14T09:29:21.001Z,15.70
2022-09-14T09:30:18.342Z,15.69
2022-09-14T09:31:16.651Z,15.69
2022-09-14T09:32:21.603Z,15.68
2022-09-14T09:33:24.394Z,15.69
2022-09-14T09:34:27.375Z,15.71
2022-09-14T09:35:25.027Z,15.73
2022-09-14T09:36:23.797Z,15.74
2022-09-14T09:37:23.922Z,15.79
2022-09-14T09:38:25.056Z,15.75
2022-09-14T09:39:26.064Z,15.71
2022-09-14T09:40:34.854Z,15.66
2022-09-14T09:41:36.547Z,15.74
2022-09-14T09:42:33.905Z,15.69
2022-09-14T09:43:47.815Z,15.67
2022-09-14T09:45:06.950Z,15.61
2022-09-14T09:46:04.789Z,15.55
2022-09-14T09:47:01.891Z,15.56
2022-09-14T09:47:58.995Z,15.54
2022-09-14T09:48:55.953Z,15.48
2022-09-14T09:49:58.624Z,15.46
2022-09-14T09:51:00.522Z,15.45
2022-09-14T09:51:58.757Z,15.50
2022-09-14T09:53:01.173Z,15.53
2022-09-14T09:54:01.756Z,15.57
2022-09-14T09:54:58.871Z,15.62
2022-09-14T09:55:55.816Z,15.62
2022-09-14T09:56:52.588Z,15.68
2022-09-14T09:57:49.671Z,15.76
2022-09-14T09:58:51.629Z,15.84
2022-09-14T09:59:48.721Z,15.90
2022-09-14T10:01:02.061Z,16.00
2022-09-14T10:02:28.810Z,16.08
2022-09-14T10:05:08.700Z,16.06
2022-09-14T10:06:12.621Z,16.12
2022-09-14T10:07:10.196Z,16.24
2022-09-14T10:08:11.372Z,16.39
2022-09-14T10:09:17.942Z,16.50
2022-09-14T10:10:15.506Z,16.70
2022-09-14T10:11:31.961Z,16.82
2022-09-14T10:12:30.991Z,16.86
2022-09-14T10:13:37.663Z,16.93
2022-09-14T10:14:36.565Z,16.88
2022-09-14T10:15:34.418Z,16.90
2022-09-14T10:16:39.130Z,16.91
2022-09-14T10:17:35.989Z,16.78
2022-09-14T10:18:33.006Z,16.93
2022-09-14T10:19:30.683Z,17.02
2022-09-14T10:20:27.733Z,17.05
2022-09-14T10:21:25.818Z,17.09
2022-09-14T10:23:39.060Z,16.78
2022-09-14T10:24:36.307Z,16.79
2022-09-14T10:25:33.141Z,16.88
2022-09-14T10:26:32.848Z,16.98
2022-09-14T10:27:38.298Z,17.15
2022-09-14T10:28:35.549Z,17.16
2022-09-14T10:29:41.567Z,17.27
2022-09-14T10:30:47.991Z,17.28
2022-09-14T10:31:45.648Z,17.35
2022-09-14T10:32:45.833Z,17.37
2022-09-14T10:33:42.807Z,17.42
2022-09-14T10:34:39.806Z,17.46
2022-09-14T10:35:46.024Z,17.50
2022-09-14T10:36:48.204Z,17.67
2022-09-14T10:37:45.112Z,17.79
2022-09-14T10:38:58.512Z,17.87
2022-09-14T10:40:07.568Z,17.95
2022-09-14T10:41:15.950Z,18.04
2022-09-14T10:42:12.846Z,17.97
2022-09-14T10:45:17.034Z,18.12
2022-09-14T10:46:24.859Z,18.19
2022-09-14T10:47:21.652Z,18.17
2022-09-14T10:48:33.620Z,18.16
2022-09-14T10:50:03.683Z,18.22
2022-09-14T10:51:15.427Z,18.18
2022-09-14T10:52:27.063Z,18.19
2022-09-14T10:53:32.755Z,18.25
2022-09-14T10:54:32.747Z,18.07
2022-09-14T10:55:57.977Z,18.03
2022-09-14T10:57:18.342Z,18.12
2022-09-14T10:58:30.257Z,18.12
2022-09-14T10:59:53.094Z,17.97
2022-09-14T11:01:01.729Z,17.86
2022-09-14T11:02:25.309Z,17.77
2022-09-14T11:03:58.462Z,17.72
2022-09-14T11:05:33.432Z,17.74
2022-09-14T11:06:40.408Z,17.66
2022-09-14T11:07:50.464Z,17.73
2022-09-14T11:08:52.609Z,17.81
2022-09-14T11:10:07.689Z,17.88
2022-09-14T11:11:35.234Z,18.00
2022-09-14T11:12:35.331Z,18.09
2022-09-14T11:13:59.244Z,18.14
2022-09-14T11:15:04.765Z,18.17
2022-09-14T11:16:06.081Z,18.23
2022-09-14T11:17:27.762Z,18.38
2022-09-14T11:18:42.688Z,18.44
2022-09-14T11:21:13.799Z,18.64
2022-09-14T11:22:31.932Z,18.47
2022-09-14T11:23:43.594Z,18.43
2022-09-14T11:24:54.881Z,18.42
2022-09-14T11:26:15.479Z,18.49
2022-09-14T11:27:45.085Z,18.33
2022-09-14T11:28:44.887Z,18.20
2022-09-14T11:30:05.981Z,18.12
2022-09-14T11:31:25.266Z,18.04
2022-09-14T11:32:59.540Z,18.05
2022-09-14T11:34:20.642Z,18.06
2022-09-14T11:35:49.757Z,17.92
2022-09-14T11:36:50.171Z,17.97
2022-09-14T11:37:59.536Z,17.95
2022-09-14T11:39:23.529Z,17.94
2022-09-14T11:40:29.138Z,17.93
2022-09-14T11:41:33.736Z,17.91
2022-09-14T11:42:36.059Z,17.94
2022-09-14T11:44:03.326Z,17.88
2022-09-14T11:45:03.694Z,17.82
2022-09-14T11:58:38.785Z,17.08
2022-09-14T11:59:43.958Z,17.10
2022-09-14T12:07:26.495Z,17.06
2022-09-14T12:21:57.384Z,16.71
2022-09-14T12:25:51.498Z,16.74
2022-09-14T12:26:11.312Z,16.79
2022-09-14T12:27:37.412Z,16.75
2022-09-14T12:28:56.524Z,16.78
2022-09-14T12:30:11.403Z,16.81
2022-09-14T12:31:47.886Z,16.72
2022-09-14T12:32:57.226Z,16.68
2022-09-14T12:35:04.856Z,16.75
2022-09-14T12:36:25.839Z,16.78
2022-09-14T12:38:22.103Z,16.83
2022-09-14T12:40:48.040Z,16.77
2022-09-14T12:43:34.193Z,16.80
2022-09-14T12:45:30.842Z,16.84
2022-09-14T12:49:13.739Z,16.81
2022-09-14T12:50:24.874Z,16.78
2022-09-14T12:51:31.440Z,16.63
2022-09-14T12:53:15.827Z,16.61
2022-09-14T12:55:26.580Z,16.60
2022-09-14T12:56:43.409Z,16.55
2022-09-14T12:57:48.699Z,16.51
2022-09-14T12:59:12.102Z,16.45
2022-09-14T13:16:00.003Z,15.79
2022-09-14T13:17:14.009Z,15.80
2022-09-14T13:18:29.553Z,15.81
2022-09-14T13:19:34.412Z,15.81
2022-09-14T13:24:21.547Z,15.91
2022-09-14T13:25:33.021Z,15.82
2022-09-14T13:26:31.693Z,15.78
2022-09-14T13:27:36.252Z,15.66
2022-09-14T13:28:33.309Z,15.60
2022-09-14T13:29:31.309Z,15.57
2022-09-14T13:30:28.528Z,15.50
2022-09-14T13:31:32.918Z,15.45
2022-09-14T13:32:29.935Z,15.46
2022-09-14T13:33:28.159Z,15.47
2022-09-14T13:34:27.641Z,15.49
2022-09-14T13:35:32.988Z,15.46
2022-09-14T13:36:34.111Z,15.46
2022-09-14T13:37:31.147Z,15.55
2022-09-14T13:38:32.702Z,15.66
2022-09-14T13:39:34.994Z,15.80
2022-09-14T13:40:32.061Z,15.84
2022-09-14T13:41:29.864Z,15.84
2022-09-14T13:42:26.894Z,15.72
2022-09-14T13:43:27.735Z,15.65
2022-09-14T13:44:34.713Z,15.44
2022-09-14T13:45:36.703Z,15.37
2022-09-14T13:46:40.344Z,15.29
2022-09-14T13:47:39.475Z,15.11
2022-09-14T13:48:40.642Z,15.03
2022-09-14T13:49:38.454Z,14.99
2022-09-14T13:50:36.878Z,14.92
2022-09-14T13:51:36.194Z,14.70
2022-09-14T13:54:22.254Z,14.68
2022-09-14T13:55:24.825Z,14.70
2022-09-14T14:05:29.139Z,14.79
2022-09-14T14:07:36.673Z,14.91
2022-09-14T14:08:40.939Z,14.95
2022-09-14T14:13:10.810Z,15.02
2022-09-14T14:14:50.334Z,15.07
2022-09-14T14:16:41.299Z,15.02
2022-09-14T14:17:56.229Z,15.11
2022-09-14T14:21:27.156Z,15.04
2022-09-14T14:24:55.659Z,15.13
2022-09-14T14:25:55.596Z,15.16
2022-09-14T14:26:56.777Z,15.13
2022-09-14T14:27:59.074Z,15.12
2022-09-14T14:29:33.246Z,15.11
2022-09-14T14:30:59.206Z,15.09
2022-09-14T14:32:12.885Z,15.09
2022-09-14T14:33:33.016Z,15.10
2022-09-14T14:34:48.159Z,15.09
2022-09-14T14:35:46.877Z,15.10
2022-09-14T14:36:45.181Z,15.08
2022-09-14T14:37:45.904Z,15.10
2022-09-14T14:38:55.228Z,15.14
2022-09-14T14:39:57.281Z,15.19
2022-09-14T14:41:14.117Z,15.25
2022-09-14T14:42:31.741Z,15.30
2022-09-14T14:43:57.568Z,15.24
2022-09-14T14:45:05.196Z,15.14
2022-09-14T14:46:05.757Z,15.11
2022-09-14T14:47:14.264Z,15.13
2022-09-14T14:50:07.112Z,15.08
2022-09-14T14:51:21.011Z,15.08
2022-09-14T14:53:11.693Z,15.06
2022-09-14T15:02:24.541Z,15.05
2022-09-14T15:12:51.944Z,15.33
2022-09-14T15:14:45.872Z,15.30
2022-09-14T15:16:16.383Z,15.15
2022-09-14T15:17:34.994Z,15.09
2022-09-14T15:20:21.682Z,15.06
2022-09-14T15:21:43.583Z,15.01
2022-09-14T15:23:47.703Z,15.02
2022-09-14T15:24:54.496Z,15.06
2022-09-14T15:28:24.613Z,14.99
2022-09-14T15:29:44.708Z,14.97
2022-09-14T15:30:46.208Z,14.90
2022-09-14T15:31:46.823Z,14.89
2022-09-14T15:32:49.174Z,14.90
2022-09-14T15:33:46.618Z,14.89
2022-09-14T15:34:44.153Z,14.91
2022-09-14T15:35:42.685Z,14.85
2022-09-14T15:36:46.431Z,14.88
2022-09-14T15:37:57.704Z,14.92
2022-09-14T15:39:03.341Z,14.91
2022-09-14T15:40:44.205Z,14.94
2022-09-14T15:41:48.259Z,14.97
2022-09-14T15:42:48.308Z,14.94